createdAt,value
2023-01-12T00:02:25.280Z,-29.09
2023-01-12T00:04:54.531Z,-29.07
2023-01-12T00:07:24.233Z,-29.07
2023-01-12T00:09:53.094Z,-29.15
2023-01-12T00:12:21.929Z,-29.15
2023-01-12T00:14:50.751Z,-29.13
2023-01-12T00:17:20.181Z,-29.24
2023-01-12T00:19:49.049Z,-29.12
2023-01-12T00:22:18.216Z,-29.17
2023-01-12T00:24:50.324Z,-29.10
2023-01-12T00:27:22.741Z,-29.08
2023-01-12T00:29:51.796Z,-29.01
2023-01-12T00:32:22.331Z,-29.02
2023-01-12T00:34:51.288Z,-29.00
2023-01-12T00:37:23.025Z,-28.98
2023-01-12T00:40:01.698Z,-28.94
2023-01-12T00:42:51.147Z,-28.94
2023-01-12T00:45:23.167Z,-28.92
2023-01-12T00:47:52.858Z,-28.86
2023-01-12T00:50:22.765Z,-28.82
2023-01-12T00:52:51.678Z,-28.84
2023-01-12T00:55:20.588Z,-28.77
2023-01-12T00:57:49.623Z,-28.74
2023-01-12T01:00:19.953Z,-28.74
2023-01-12T01:02:49.262Z,-28.77
2023-01-12T01:05:18.625Z,-28.75
2023-01-12T01:07:48.009Z,-28.75
2023-01-12T01:10:17.376Z,-28.80
2023-01-12T01:12:46.513Z,-28.76
2023-01-12T01:15:15.511Z,-28.78
2023-01-12T01:17:44.395Z,-28.73
2023-01-12T01:20:13.595Z,-28.71
2023-01-12T01:22:42.514Z,-28.70
2023-01-12T01:25:11.755Z,-28.68
2023-01-12T01:27:41.733Z,-28.64
2023-01-12T01:30:11.720Z,-28.67
2023-01-12T01:32:40.544Z,-28.66
2023-01-12T01:35:09.723Z,-28.61
2023-01-12T01:37:38.749Z,-28.55
2023-01-12T01:40:08.264Z,-28.51
2023-01-12T01:42:37.244Z,-28.51
2023-01-12T01:45:08.074Z,-28.47
2023-01-12T01:48:01.106Z,-28.43
2023-01-12T01:50:39.061Z,-28.47
2023-01-12T01:53:12.819Z,-28.44
2023-01-12T01:55:51.062Z,-28.35
2023-01-12T01:58:36.532Z,-28.36
2023-01-12T02:01:06.980Z,-28.32
2023-01-12T02:03:37.599Z,-28.30
2023-01-12T02:06:08.127Z,-28.29
2023-01-12T02:08:53.383Z,-28.23
2023-01-12T02:11:41.219Z,-28.17
2023-01-12T02:14:30.137Z,-28.13
2023-01-12T02:17:29.250Z,-28.06
2023-01-12T02:20:01.162Z,-27.97
2023-01-12T02:22:42.092Z,-27.92
2023-01-12T02:25:25.765Z,-27.84
2023-01-12T02:28:17.710Z,-27.84
2023-01-12T02:31:20.556Z,-27.81
2023-01-12T02:34:06.848Z,-27.71
2023-01-12T02:36:54.466Z,-27.66
2023-01-12T02:39:29.532Z,-27.59
2023-01-12T02:42:25.719Z,-27.56
2023-01-12T02:45:28.752Z,-27.51
2023-01-12T02:48:21.393Z,-27.51
2023-01-12T02:51:02.225Z,-27.55
2023-01-12T02:53:47.725Z,-27.52
2023-01-12T02:56:32.907Z,-27.50
2023-01-12T02:59:25.412Z,-27.49
2023-01-12T03:02:00.938Z,-27.47
2023-01-12T03:04:33.017Z,-27.44
2023-01-12T03:07:01.781Z,-27.40
2023-01-12T03:09:40.275Z,-27.30
2023-01-12T03:12:14.996Z,-27.23
2023-01-12T03:14:47.578Z,-27.24
2023-01-12T03:17:23.657Z,-27.22
2023-01-12T03:19:55.501Z,-27.18
2023-01-12T03:22:25.410Z,-27.10
2023-01-12T03:24:59.237Z,-27.10
2023-01-12T03:27:56.288Z,-26.99
2023-01-12T03:30:32.529Z,-26.86
2023-01-12T03:33:02.074Z,-26.77
2023-01-12T03:35:37.197Z,-26.70
2023-01-12T03:38:20.320Z,-26.63
2023-01-12T03:41:01.151Z,-26.62
2023-01-12T03:43:35.362Z,-26.49
2023-01-12T03:46:11.878Z,-26.41
2023-01-12T03:48:47.655Z,-26.32
2023-01-12T03:51:23.121Z,-26.28
2023-01-12T03:53:53.408Z,-26.23
2023-01-12T03:56:26.063Z,-26.23
2023-01-12T03:58:55.134Z,-26.27
2023-01-12T04:01:25.010Z,-26.36
2023-01-12T04:03:54.212Z,-26.41
2023-01-12T04:06:23.687Z,-26.47
2023-01-12T04:08:52.517Z,-26.38
2023-01-12T04:11:40.040Z,-26.24
2023-01-12T04:14:08.940Z,-26.23
2023-01-12T04:16:37.863Z,-26.16
2023-01-12T04:19:06.805Z,-26.05
2023-01-12T04:21:54.107Z,-26.00
2023-01-12T04:24:22.984Z,-25.92
2023-01-12T04:26:51.824Z,-25.97
2023-01-12T04:29:21.110Z,-26.08
2023-01-12T04:31:50.002Z,-25.89
2023-01-12T04:34:19.447Z,-25.90
2023-01-12T04:36:48.384Z,-25.76
2023-01-12T04:39:17.771Z,-25.65
2023-01-12T04:41:46.847Z,-25.56
2023-01-12T04:44:15.807Z,-25.62
2023-01-12T04:46:44.704Z,-25.56
2023-01-12T04:49:13.643Z,-25.65
2023-01-12T04:51:42.821Z,-25.43
2023-01-12T04:54:11.867Z,-25.34
2023-01-12T04:56:42.297Z,-25.35
2023-01-12T04:59:11.283Z,-25.40
2023-01-12T05:01:41.443Z,-25.36
2023-01-12T05:04:10.670Z,-25.37
2023-01-12T05:06:39.455Z,-25.25
2023-01-12T05:09:27.847Z,-25.29
2023-01-12T05:11:56.669Z,-25.28
2023-01-12T05:14:26.908Z,-25.14
2023-01-12T05:16:55.827Z,-25.07
2023-01-12T05:19:24.747Z,-25.01
2023-01-12T05:21:53.584Z,-24.99
2023-01-12T05:24:22.494Z,-24.99
2023-01-12T05:26:51.439Z,-24.95
2023-01-12T05:29:20.343Z,-25.16
2023-01-12T05:31:49.362Z,-25.04
2023-01-12T05:34:20.375Z,-24.97
2023-01-12T05:36:49.573Z,-24.90
2023-01-12T05:39:18.474Z,-24.90
2023-01-12T05:42:05.792Z,-24.88
2023-01-12T05:44:34.794Z,-24.81
2023-01-12T05:47:04.007Z,-24.79
2023-01-12T05:49:33.425Z,-24.74
2023-01-12T05:52:02.313Z,-24.73
2023-01-12T05:54:32.145Z,-24.75
2023-01-12T05:57:01.141Z,-24.94
2023-01-12T05:59:30.059Z,-24.75
2023-01-12T06:02:00.052Z,-24.61
2023-01-12T06:04:29.924Z,-24.44
2023-01-12T06:06:58.979Z,-24.32
2023-01-12T06:09:27.827Z,-24.38
2023-01-12T06:12:25.933Z,-24.56
2023-01-12T06:14:54.853Z,-24.70
2023-01-12T06:17:23.685Z,-24.72
2023-01-12T06:19:53.978Z,-24.74
2023-01-12T06:22:22.831Z,-24.74
2023-01-12T06:24:51.682Z,-24.70
2023-01-12T06:27:20.529Z,-24.71
2023-01-12T06:29:49.973Z,-24.71
2023-01-12T06:32:18.904Z,-24.72
2023-01-12T06:34:47.770Z,-24.81
2023-01-12T06:37:16.718Z,-24.79
2023-01-12T06:39:45.591Z,-25.00
2023-01-12T06:42:29.638Z,-25.01
2023-01-12T06:45:00.723Z,-25.07
2023-01-12T06:47:31.652Z,-24.98
2023-01-12T06:50:00.615Z,-24.99
2023-01-12T06:52:30.798Z,-24.95
2023-01-12T06:54:59.982Z,-24.91
2023-01-12T06:57:28.848Z,-24.86
2023-01-12T06:59:57.809Z,-24.83
2023-01-12T07:02:27.506Z,-24.83
2023-01-12T07:04:56.814Z,-24.76
2023-01-12T07:07:25.811Z,-24.87
2023-01-12T07:09:54.704Z,-24.83
2023-01-12T07:12:23.965Z,-24.90
2023-01-12T07:14:53.037Z,-24.94
2023-01-12T07:17:21.884Z,-25.05
2023-01-12T07:19:50.829Z,-25.00
2023-01-12T07:22:19.694Z,-25.01
2023-01-12T07:24:48.576Z,-25.01
2023-01-12T07:27:17.615Z,-25.01
2023-01-12T07:29:47.675Z,-25.09
2023-01-12T07:32:16.595Z,-25.19
2023-01-12T07:34:46.178Z,-25.36
2023-01-12T07:37:15.028Z,-25.41
2023-01-12T07:39:43.888Z,-25.58
2023-01-12T07:42:25.137Z,-25.50
2023-01-12T07:44:54.403Z,-25.49
2023-01-12T07:47:23.435Z,-25.50
2023-01-12T07:49:52.283Z,-25.65
2023-01-12T07:52:21.145Z,-25.73
2023-01-12T07:54:49.988Z,-25.62
2023-01-12T07:57:19.237Z,-25.64
2023-01-12T07:59:48.127Z,-25.78
2023-01-12T08:02:18.056Z,-25.76
2023-01-12T08:04:48.212Z,-25.81
2023-01-12T08:07:17.256Z,-25.83
2023-01-12T08:09:46.584Z,-25.79
2023-01-12T08:12:15.672Z,-25.96
2023-01-12T08:14:44.555Z,-25.91
2023-01-12T08:17:22.361Z,-25.90
2023-01-12T08:20:00.460Z,-25.88
2023-01-12T08:22:34.885Z,-25.94
2023-01-12T08:25:11.580Z,-25.95
2023-01-12T08:27:46.299Z,-26.03
2023-01-12T08:30:20.816Z,-26.07
2023-01-12T08:32:49.897Z,-26.07
2023-01-12T08:35:22.407Z,-26.11
2023-01-12T08:37:51.354Z,-26.17
2023-01-12T08:40:20.292Z,-26.22
2023-01-12T08:42:50.940Z,-26.23
2023-01-12T08:45:21.699Z,-26.21
2023-01-12T08:47:50.597Z,-26.27
2023-01-12T08:50:19.561Z,-26.27
2023-01-12T08:52:48.604Z,-26.28
2023-01-12T08:55:17.589Z,-26.31
2023-01-12T08:57:46.962Z,-26.34
2023-01-12T09:00:17.410Z,-26.35
2023-01-12T09:02:46.550Z,-26.40
2023-01-12T09:05:17.136Z,-26.45
2023-01-12T09:07:45.923Z,-26.52
2023-01-12T09:10:15.002Z,-26.54
2023-01-12T09:12:43.809Z,-26.58
2023-01-12T09:15:12.805Z,-26.53
2023-01-12T09:17:41.700Z,-26.49
2023-01-12T09:20:12.038Z,-26.48
2023-01-12T09:22:41.060Z,-26.51
2023-01-12T09:25:10.076Z,-26.46
2023-01-12T09:27:38.931Z,-26.47
2023-01-12T09:30:08.497Z,-26.49
2023-01-12T09:32:37.352Z,-26.52
2023-01-12T09:35:06.847Z,-26.55
2023-01-12T09:37:35.755Z,-26.61
2023-01-12T09:40:05.262Z,-26.58
2023-01-12T09:42:52.566Z,-26.57
2023-01-12T09:45:41.989Z,-26.55
2023-01-12T09:48:14.784Z,-26.54
2023-01-12T09:50:52.498Z,-26.53
2023-01-12T09:53:33.471Z,-26.59
2023-01-12T09:56:43.810Z,-26.54
2023-01-12T09:59:25.760Z,-26.59
2023-01-12T10:01:55.920Z,-26.59
2023-01-12T10:04:25.919Z,-26.63
2023-01-12T10:06:56.084Z,-26.60
2023-01-12T10:09:25.404Z,-26.59
2023-01-12T10:12:15.212Z,-26.63
2023-01-12T10:14:58.019Z,-26.64
2023-01-12T10:17:57.586Z,-26.71
2023-01-12T10:20:34.491Z,-26.69
2023-01-12T10:23:15.360Z,-26.72
2023-01-12T10:25:52.344Z,-26.72
2023-01-12T10:28:27.066Z,-26.69
2023-01-12T10:30:56.649Z,-26.70
2023-01-12T10:33:31.145Z,-26.68
2023-01-12T10:36:03.161Z,-26.65
2023-01-12T10:38:38.001Z,-26.71
2023-01-12T10:41:19.891Z,-26.60
2023-01-12T10:44:00.881Z,-26.57
2023-01-12T10:46:34.517Z,-26.60
2023-01-12T10:49:23.997Z,-26.62
2023-01-12T10:52:08.673Z,-26.62
2023-01-12T10:54:42.258Z,-26.58
2023-01-12T10:57:23.998Z,-26.69
2023-01-12T10:59:59.674Z,-26.65
2023-01-12T11:02:48.563Z,-26.59
2023-01-12T11:05:37.435Z,-26.54
2023-01-12T11:08:28.147Z,-26.61
2023-01-12T11:10:57.071Z,-26.63
2023-01-12T11:13:38.087Z,-26.61
2023-01-12T11:16:19.181Z,-26.64
2023-01-12T11:19:12.719Z,-26.64
2023-01-12T11:21:49.910Z,-26.73
2023-01-12T11:24:32.197Z,-26.69
2023-01-12T11:27:13.430Z,-26.66
2023-01-12T11:30:01.188Z,-26.68
2023-01-12T11:33:14.415Z,-26.75
2023-01-12T11:35:55.425Z,-26.70
2023-01-12T11:39:02.593Z,-26.71
2023-01-12T11:42:24.119Z,-26.76
2023-01-12T11:45:04.231Z,-26.83
2023-01-12T11:47:50.149Z,-26.80
2023-01-12T11:50:25.424Z,-26.77
2023-01-12T11:52:56.935Z,-26.85
2023-01-12T11:55:46.794Z,-26.86
2023-01-12T11:58:28.102Z,-26.85
2023-01-12T12:01:36.508Z,-26.86
2023-01-12T12:04:37.354Z,-26.88
2023-01-12T12:07:38.497Z,-26.88
2023-01-12T12:10:29.955Z,-26.81
2023-01-12T12:13:13.632Z,-26.81
2023-01-12T12:16:16.396Z,-26.75
2023-01-12T12:19:01.850Z,-26.79
2023-01-12T12:21:30.646Z,-26.72
2023-01-12T12:24:17.902Z,-26.69
2023-01-12T12:26:59.968Z,-26.65
2023-01-12T12:29:47.652Z,-26.61
2023-01-12T12:32:31.534Z,-26.59
2023-01-12T12:35:19.501Z,-26.56
2023-01-12T12:38:19.903Z,-26.55
2023-01-12T12:41:21.384Z,-26.59
2023-01-12T12:44:18.148Z,-26.62
2023-01-12T12:46:54.000Z,-26.60
2023-01-12T12:49:28.833Z,-26.64
2023-01-12T12:52:00.487Z,-26.60
2023-01-12T12:54:30.708Z,-26.71
2023-01-12T12:56:59.933Z,-26.60
2023-01-12T12:59:34.685Z,-26.58
2023-01-12T13:02:04.571Z,-26.52
2023-01-12T13:04:46.931Z,-26.51
2023-01-12T13:07:20.081Z,-26.52
2023-01-12T13:09:50.178Z,-26.46
2023-01-12T13:12:19.251Z,-26.47
2023-01-12T13:15:21.910Z,-26.50
2023-01-12T13:17:53.516Z,-26.61
2023-01-12T13:20:54.189Z,-26.55
2023-01-12T13:23:43.425Z,-26.65
2023-01-12T13:26:47.554Z,-26.66
2023-01-12T13:29:42.827Z,-26.66
2023-01-12T13:32:34.122Z,-26.74
2023-01-12T13:35:03.462Z,-26.85
2023-01-12T13:37:45.734Z,-26.79
2023-01-12T13:40:20.749Z,-26.78
2023-01-12T13:43:09.687Z,-26.82
2023-01-12T13:45:38.592Z,-26.87
2023-01-12T13:48:08.197Z,-26.87
2023-01-12T13:50:38.632Z,-26.92
2023-01-12T13:53:23.166Z,-26.99
2023-01-12T13:56:04.870Z,-27.03
2023-01-12T13:58:44.889Z,-27.10
2023-01-12T14:01:36.323Z,-27.19
2023-01-12T14:04:24.896Z,-27.16
2023-01-12T14:07:12.027Z,-27.23
2023-01-12T14:10:11.991Z,-27.24
2023-01-12T14:12:53.252Z,-27.27
2023-01-12T14:15:47.946Z,-27.28
2023-01-12T14:18:19.791Z,-27.40
2023-01-12T14:20:51.041Z,-27.32
2023-01-12T14:23:28.983Z,-27.28
2023-01-12T14:26:11.330Z,-27.29
2023-01-12T14:28:46.081Z,-27.27
2023-01-12T14:31:54.362Z,-27.26
2023-01-12T14:34:35.981Z,-27.31
2023-01-12T14:37:08.421Z,-27.28
2023-01-12T14:39:41.843Z,-27.22
2023-01-12T14:42:37.299Z,-27.28
2023-01-12T14:45:43.535Z,-27.28
2023-01-12T14:48:30.586Z,-27.27
2023-01-12T14:51:16.768Z,-27.36
2023-01-12T14:53:55.789Z,-27.26
2023-01-12T14:56:37.237Z,-27.28
2023-01-12T14:59:09.463Z,-27.48
2023-01-12T15:01:40.525Z,-27.34
2023-01-12T15:04:18.319Z,-27.37
2023-01-12T15:06:48.581Z,-27.42
2023-01-12T15:09:32.958Z,-27.41
2023-01-12T15:12:30.638Z,-27.46
2023-01-12T15:15:15.130Z,-27.50
2023-01-12T15:18:03.071Z,-27.67
2023-01-12T15:20:57.893Z,-27.56
2023-01-12T15:23:47.915Z,-27.56
2023-01-12T15:26:18.302Z,-27.55
2023-01-12T15:28:49.270Z,-27.55
2023-01-12T15:31:32.969Z,-27.53
2023-01-12T15:34:02.562Z,-27.68
2023-01-12T15:36:31.980Z,-27.73
2023-01-12T15:39:00.881Z,-27.57
2023-01-12T15:41:51.012Z,-27.44
2023-01-12T15:44:22.256Z,-27.34
2023-01-12T15:46:51.497Z,-27.29
2023-01-12T15:49:23.715Z,-27.31
2023-01-12T15:51:53.400Z,-27.29
2023-01-12T15:54:22.615Z,-27.33
2023-01-12T15:56:51.760Z,-27.58
2023-01-12T15:59:20.973Z,-27.57
2023-01-12T16:01:51.002Z,-27.53
2023-01-12T16:04:43.040Z,-27.51
2023-01-12T16:07:13.385Z,-27.50
2023-01-12T16:09:42.714Z,-27.49
2023-01-12T16:12:11.628Z,-27.56
2023-01-12T16:14:40.580Z,-27.74
2023-01-12T16:17:10.084Z,-27.55
2023-01-12T16:19:43.264Z,-27.64
2023-01-12T16:22:26.195Z,-27.58
2023-01-12T16:24:57.611Z,-27.65
2023-01-12T16:27:27.766Z,-27.73
2023-01-12T16:29:57.771Z,-27.78
2023-01-12T16:32:27.878Z,-27.87
2023-01-12T16:34:58.031Z,-28.00
2023-01-12T16:37:30.517Z,-28.04
2023-01-12T16:39:59.755Z,-28.01
2023-01-12T16:42:28.942Z,-28.03
2023-01-12T16:44:57.845Z,-28.10
2023-01-12T16:47:26.631Z,-28.14
2023-01-12T16:49:55.518Z,-28.16
2023-01-12T16:52:24.750Z,-28.15
2023-01-12T16:54:53.731Z,-28.26
2023-01-12T16:57:22.799Z,-28.19
2023-01-12T16:59:51.781Z,-28.30
2023-01-12T17:02:21.269Z,-28.18
2023-01-12T17:04:52.950Z,-28.17
2023-01-12T17:07:22.591Z,-28.26
2023-01-12T17:09:52.502Z,-28.34
2023-01-12T17:12:21.793Z,-28.33
2023-01-12T17:14:50.786Z,-28.36
2023-01-12T17:17:20.586Z,-28.34
2023-01-12T17:19:49.600Z,-28.41
2023-01-12T17:22:18.655Z,-28.52
2023-01-12T17:24:47.977Z,-28.26
2023-01-12T17:27:17.273Z,-28.29
2023-01-12T17:29:48.710Z,-28.30
2023-01-12T17:32:18.750Z,-28.27
2023-01-12T17:34:50.839Z,-28.23
2023-01-12T17:37:20.248Z,-28.33
2023-01-12T17:39:49.521Z,-28.31
2023-01-12T17:42:37.542Z,-28.22
2023-01-12T17:45:07.045Z,-28.30
2023-01-12T17:47:35.991Z,-28.20
2023-01-12T17:50:05.003Z,-28.32
2023-01-12T17:52:33.983Z,-28.17
2023-01-12T17:55:03.012Z,-28.18
2023-01-12T17:57:32.442Z,-28.18
2023-01-12T18:00:01.365Z,-28.22
2023-01-12T18:02:34.023Z,-28.19
2023-01-12T18:05:03.104Z,-28.22
2023-01-12T18:07:32.806Z,-28.23
2023-01-12T18:10:01.708Z,-28.26
2023-01-12T18:12:32.224Z,-28.21
2023-01-12T18:15:00.999Z,-28.16
2023-01-12T18:17:32.357Z,-28.15
2023-01-12T18:20:01.285Z,-28.11
2023-01-12T18:22:31.799Z,-28.12
2023-01-12T18:25:00.815Z,-28.15
2023-01-12T18:27:29.716Z,-28.07
2023-01-12T18:29:58.548Z,-28.05
2023-01-12T18:32:27.405Z,-28.14
2023-01-12T18:34:57.525Z,-28.07
2023-01-12T18:37:26.611Z,-28.08
2023-01-12T18:39:55.530Z,-28.06
2023-01-12T18:42:43.025Z,-28.14
2023-01-12T18:45:11.952Z,-28.24
2023-01-12T18:47:59.380Z,-28.12
2023-01-12T18:50:47.845Z,-28.12
2023-01-12T18:53:25.566Z,-28.16
2023-01-12T18:55:57.460Z,-28.09
2023-01-12T18:58:29.596Z,-28.11
2023-01-12T19:01:03.302Z,-28.07
2023-01-12T19:03:32.429Z,-28.13
2023-01-12T19:06:10.731Z,-28.05
2023-01-12T19:08:58.165Z,-28.02
2023-01-12T19:11:27.094Z,-27.97
2023-01-12T19:14:14.542Z,-27.96
2023-01-12T19:17:02.056Z,-28.01
2023-01-12T19:19:32.367Z,-28.00
2023-01-12T19:22:20.309Z,-28.07
2023-01-12T19:25:07.835Z,-27.98
2023-01-12T19:27:55.303Z,-28.01
2023-01-12T19:30:24.247Z,-28.05
2023-01-12T19:32:53.670Z,-28.00
2023-01-12T19:35:22.716Z,-28.02
2023-01-12T19:37:51.789Z,-28.06
2023-01-12T19:40:20.835Z,-28.09
2023-01-12T19:43:08.176Z,-28.02
2023-01-12T19:45:45.459Z,-28.12
2023-01-12T19:48:16.238Z,-27.99
2023-01-12T19:50:45.535Z,-27.97
2023-01-12T19:53:16.517Z,-28.03
2023-01-12T19:55:46.324Z,-27.90
2023-01-12T19:58:15.883Z,-27.91
2023-01-12T20:00:47.514Z,-27.87
2023-01-12T20:03:19.172Z,-27.84
2023-01-12T20:05:51.487Z,-27.95
2023-01-12T20:08:23.307Z,-27.89
2023-01-12T20:11:01.466Z,-27.90
2023-01-12T20:13:31.627Z,-27.89
2023-01-12T20:16:00.656Z,-27.88
2023-01-12T20:18:29.588Z,-27.84
2023-01-12T20:21:01.510Z,-27.89
2023-01-12T20:23:30.353Z,-27.87
2023-01-12T20:25:59.236Z,-27.90
2023-01-12T20:28:28.066Z,-27.89
2023-01-12T20:30:59.268Z,-27.92
2023-01-12T20:33:29.064Z,-27.96
2023-01-12T20:35:59.003Z,-27.99
2023-01-12T20:38:28.284Z,-27.98
2023-01-12T20:40:57.441Z,-27.98
2023-01-12T20:43:26.517Z,-27.95
2023-01-12T20:45:55.299Z,-28.01
2023-01-12T20:48:24.121Z,-27.98
2023-01-12T20:50:53.418Z,-27.93
2023-01-12T20:53:24.424Z,-27.91
2023-01-12T20:55:53.574Z,-27.89
2023-01-12T20:58:22.714Z,-27.85
2023-01-12T21:00:53.651Z,-27.92
2023-01-12T21:03:24.624Z,-27.92
2023-01-12T21:05:53.593Z,-27.98
2023-01-12T21:08:23.701Z,-28.07
2023-01-12T21:10:54.481Z,-28.04
2023-01-12T21:13:24.500Z,-27.98
2023-01-12T21:16:04.865Z,-27.98
2023-01-12T21:18:34.569Z,-28.00
2023-01-12T21:21:03.588Z,-28.01
2023-01-12T21:23:32.788Z,-28.01
2023-01-12T21:26:02.706Z,-28.22
2023-01-12T21:28:31.620Z,-28.00
2023-01-12T21:31:04.903Z,-28.00
2023-01-12T21:33:34.435Z,-27.92
2023-01-12T21:36:03.577Z,-27.86
2023-01-12T21:38:33.321Z,-27.85
2023-01-12T21:41:04.295Z,-27.88
2023-01-12T21:43:35.136Z,-27.91
2023-01-12T21:46:06.794Z,-27.90
2023-01-12T21:48:36.401Z,-28.04
2023-01-12T21:51:06.909Z,-28.09
2023-01-12T21:53:36.424Z,-28.24
2023-01-12T21:56:06.446Z,-28.24
2023-01-12T21:58:36.820Z,-28.25
2023-01-12T22:01:10.431Z,-28.33
2023-01-12T22:03:41.842Z,-28.22
2023-01-12T22:06:13.653Z,-28.21
2023-01-12T22:08:43.246Z,-28.19
2023-01-12T22:11:14.914Z,-28.25
2023-01-12T22:13:44.289Z,-28.22
2023-01-12T22:16:15.506Z,-28.16
2023-01-12T22:18:52.943Z,-28.16
2023-01-12T22:21:22.599Z,-28.05
2023-01-12T22:23:51.388Z,-28.03
2023-01-12T22:26:20.683Z,-28.06
2023-01-12T22:28:50.001Z,-28.03
2023-01-12T22:31:21.658Z,-28.00
2023-01-12T22:33:55.571Z,-27.99
2023-01-12T22:36:24.356Z,-27.99
2023-01-12T22:38:53.154Z,-27.92
2023-01-12T22:41:23.185Z,-27.98
2023-01-12T22:43:56.208Z,-27.95
2023-01-12T22:46:27.056Z,-27.87
2023-01-12T22:48:58.146Z,-27.89
2023-01-12T22:51:28.543Z,-27.84
2023-01-12T22:53:58.228Z,-27.86
2023-01-12T22:56:27.302Z,-27.78
2023-01-12T22:58:57.094Z,-27.70
2023-01-12T23:01:27.423Z,-27.71
2023-01-12T23:03:58.367Z,-27.70
2023-01-12T23:06:27.712Z,-27.62
2023-01-12T23:08:56.622Z,-27.56
2023-01-12T23:11:27.112Z,-27.40
2023-01-12T23:13:56.035Z,-27.35
2023-01-12T23:16:25.872Z,-27.27
2023-01-12T23:18:55.908Z,-27.34
2023-01-12T23:21:27.722Z,-27.19
2023-01-12T23:23:59.320Z,-27.11
2023-01-12T23:26:32.813Z,-27.10
2023-01-12T23:29:03.572Z,-27.12
2023-01-12T23:31:34.265Z,-27.09
2023-01-12T23:34:03.884Z,-27.09
2023-01-12T23:36:32.913Z,-27.16
2023-01-12T23:39:04.373Z,-27.18
2023-01-12T23:41:35.886Z,-27.27
2023-01-12T23:44:08.137Z,-27.29
2023-01-12T23:46:39.681Z,-27.30
2023-01-12T23:49:08.688Z,-27.32
2023-01-12T23:51:37.655Z,-27.24
2023-01-12T23:54:08.089Z,-27.20
2023-01-12T23:56:36.896Z,-27.16
2023-01-12T23:59:05.682Z,-27.09
